sensor_id;sensor_type;location;lat;lon;timestamp;temperature;humidity
34766;DHT22;20984;43.508;1.504;2024-01-15T00:01:41;9.30;99.90
34766;DHT22;20984;43.508;1.504;2024-01-15T00:04:07;9.30;99.90
34766;DHT22;20984;43.508;1.504;2024-01-15T00:06:32;9.30;99.90
34766;DHT22;20984;43.508;1.504;2024-01-15T00:08:58;9.30;99.90
34766;DHT22;20984;43.508;1.504;2024-01-15T00:11:24;9.30;99.90
34766;DHT22;20984;43.508;1.504;2024-01-15T00:13:49;9.30;99.90
34766;DHT22;20984;43.508;1.504;2024-01-15T00:16:15;9.40;99.90
34766;DHT22;20984;43.508;1.504;2024-01-15T00:18:40;9.40;99.90
34766;DHT22;20984;43.508;1.504;2024-01-15T00:21:06;9.40;99.90
34766;DHT22;20984;43.508;1.504;2024-01-15T00:23:31;9.40;99.90
34766;DHT22;20984;43.508;1.504;2024-01-15T00:25:57;9.40;99.90
34766;DHT22;20984;43.508;1.504;2024-01-15T00:28:23;9.50;99.90
34766;DHT22;20984;43.508;1.504;2024-01-15T00:30:48;9.50;99.90
34766;DHT22;20984;43.508;1.504;2024-01-15T00:33:14;9.50;99.90
34766;DHT22;20984;43.508;1.504;2024-01-15T00:35:40;9.60;99.90
34766;DHT22;20984;43.508;1.504;2024-01-15T00:38:06;9.50;99.90
34766;DHT22;20984;43.508;1.504;2024-01-15T00:40:31;9.50;99.90
34766;DHT22;20984;43.508;1.504;2024-01-15T00:42:57;9.60;99.90
34766;DHT22;20984;43.508;1.504;2024-01-15T00:45:22;9.50;99.90
34766;DHT22;20984;43.508;1.504;2024-01-15T00:47:48;9.60;99.90
34766;DHT22;20984;43.508;1.504;2024-01-15T00:50:13;9.60;99.90
34766;DHT22;20984;43.508;1.504;2024-01-15T00:52:39;9.50;99.90
34766;DHT22;20984;43.508;1.504;2024-01-15T00:55:05;9.50;99.90
34766;DHT22;20984;43.508;1.504;2024-01-15T00:57:31;9.40;99.90
34766;DHT22;20984;43.508;1.504;2024-01-15T00:59:56;9.40;99.90
34766;DHT22;20984;43.508;1.504;2024-01-15T01:02:22;9.30;99.90
34766;DHT22;20984;43.508;1.504;2024-01-15T01:04:47;9.30;99.90
34766;DHT22;20984;43.508;1.504;2024-01-15T01:07:13;9.30;99.90
34766;DHT22;20984;43.508;1.504;2024-01-15T01:09:38;9.30;99.90
34766;DHT22;20984;43.508;1.504;2024-01-15T01:12:04;9.40;99.90
34766;DHT22;20984;43.508;1.504;2024-01-15T01:14:29;9.40;99.90
34766;DHT22;20984;43.508;1.504;2024-01-15T01:16:55;9.50;99.90
34766;DHT22;20984;43.508;1.504;2024-01-15T01:19:20;9.50;99.90
34766;DHT22;20984;43.508;1.504;2024-01-15T01:21:46;9.60;99.90
34766;DHT22;20984;43.508;1.504;2024-01-15T01:24:11;9.60;99.90
34766;DHT22;20984;43.508;1.504;2024-01-15T01:26:37;9.70;99.90
34766;DHT22;20984;43.508;1.504;2024-01-15T01:29:02;9.70;99.90
34766;DHT22;20984;43.508;1.504;2024-01-15T01:31:28;9.70;99.90
34766;DHT22;20984;43.508;1.504;2024-01-15T01:33:53;9.70;99.90
34766;DHT22;20984;43.508;1.504;2024-01-15T01:36:19;9.60;99.90
34766;DHT22;20984;43.508;1.504;2024-01-15T01:38:44;9.60;99.90
34766;DHT22;20984;43.508;1.504;2024-01-15T01:41:10;9.60;99.90
34766;DHT22;20984;43.508;1.504;2024-01-15T01:43:36;9.60;99.90
34766;DHT22;20984;43.508;1.504;2024-01-15T01:46:01;9.50;99.90
34766;DHT22;20984;43.508;1.504;2024-01-15T01:48:28;9.40;99.90
34766;DHT22;20984;43.508;1.504;2024-01-15T01:50:55;9.30;99.90
34766;DHT22;20984;43.508;1.504;2024-01-15T01:53:22;9.30;99.90
34766;DHT22;20984;43.508;1.504;2024-01-15T01:55:48;9.30;99.90
34766;DHT22;20984;43.508;1.504;2024-01-15T01:58:14;9.20;99.90
34766;DHT22;20984;43.508;1.504;2024-01-15T02:00:40;9.10;99.90
34766;DHT22;20984;43.508;1.504;2024-01-15T02:03:07;8.90;99.90
34766;DHT22;20984;43.508;1.504;2024-01-15T02:05:33;8.80;99.90
34766;DHT22;20984;43.508;1.504;2024-01-15T02:07:59;8.60;99.90
34766;DHT22;20984;43.508;1.504;2024-01-15T02:10:25;8.50;99.90
34766;DHT22;20984;43.508;1.504;2024-01-15T02:12:50;8.40;99.90
34766;DHT22;20984;43.508;1.504;2024-01-15T02:15:16;8.40;99.90
34766;DHT22;20984;43.508;1.504;2024-01-15T02:18:03;8.30;99.90
34766;DHT22;20984;43.508;1.504;2024-01-15T02:20:29;8.30;99.90
34766;DHT22;20984;43.508;1.504;2024-01-15T02:23:08;8.30;99.90
34766;DHT22;20984;43.508;1.504;2024-01-15T02:25:41;8.30;99.90
34766;DHT22;20984;43.508;1.504;2024-01-15T02:28:11;8.40;99.90
34766;DHT22;20984;43.508;1.504;2024-01-15T02:30:37;8.50;99.90
34766;DHT22;20984;43.508;1.504;2024-01-15T02:33:04;8.50;99.90
34766;DHT22;20984;43.508;1.504;2024-01-15T02:35:30;8.60;99.90
34766;DHT22;20984;43.508;1.504;2024-01-15T02:37:55;8.60;99.90
34766;DHT22;20984;43.508;1.504;2024-01-15T02:40:21;8.60;99.90
34766;DHT22;20984;43.508;1.504;2024-01-15T02:42:46;8.60;99.90
34766;DHT22;20984;43.508;1.504;2024-01-15T02:45:12;8.50;99.90
34766;DHT22;20984;43.508;1.504;2024-01-15T02:47:37;8.40;99.90
34766;DHT22;20984;43.508;1.504;2024-01-15T02:50:03;8.40;99.90
34766;DHT22;20984;43.508;1.504;2024-01-15T02:52:29;8.50;99.90
34766;DHT22;20984;43.508;1.504;2024-01-15T02:54:54;8.40;99.90
34766;DHT22;20984;43.508;1.504;2024-01-15T02:57:20;8.40;99.90
34766;DHT22;20984;43.508;1.504;2024-01-15T02:59:45;8.40;99.90
34766;DHT22;20984;43.508;1.504;2024-01-15T03:02:11;8.50;99.90
34766;DHT22;20984;43.508;1.504;2024-01-15T03:04:36;8.50;99.90
34766;DHT22;20984;43.508;1.504;2024-01-15T03:07:02;8.40;99.90
34766;DHT22;20984;43.508;1.504;2024-01-15T03:09:27;8.40;99.90
34766;DHT22;20984;43.508;1.504;2024-01-15T03:11:53;8.40;99.90
34766;DHT22;20984;43.508;1.504;2024-01-15T03:14:19;8.60;99.90
34766;DHT22;20984;43.508;1.504;2024-01-15T03:16:45;8.70;99.90
34766;DHT22;20984;43.508;1.504;2024-01-15T03:19:11;8.70;99.90
34766;DHT22;20984;43.508;1.504;2024-01-15T03:21:36;8.80;99.90
34766;DHT22;20984;43.508;1.504;2024-01-15T03:24:02;8.80;99.90
34766;DHT22;20984;43.508;1.504;2024-01-15T03:26:27;8.70;99.90
34766;DHT22;20984;43.508;1.504;2024-01-15T03:28:53;8.70;99.90
34766;DHT22;20984;43.508;1.504;2024-01-15T03:31:18;8.70;99.90
34766;DHT22;20984;43.508;1.504;2024-01-15T03:33:44;8.70;99.90
34766;DHT22;20984;43.508;1.504;2024-01-15T03:36:09;8.60;99.90
34766;DHT22;20984;43.508;1.504;2024-01-15T03:38:38;8.70;99.90
34766;DHT22;20984;43.508;1.504;2024-01-15T03:41:04;8.70;99.90
34766;DHT22;20984;43.508;1.504;2024-01-15T03:43:29;8.80;99.90
34766;DHT22;20984;43.508;1.504;2024-01-15T03:45:55;8.90;99.90
34766;DHT22;20984;43.508;1.504;2024-01-15T03:48:20;8.90;99.90
34766;DHT22;20984;43.508;1.504;2024-01-15T03:50:46;8.90;99.90
34766;DHT22;20984;43.508;1.504;2024-01-15T03:53:11;8.90;99.90
34766;DHT22;20984;43.508;1.504;2024-01-15T03:55:37;9.00;99.90
34766;DHT22;20984;43.508;1.504;2024-01-15T03:58:02;9.00;99.90
34766;DHT22;20984;43.508;1.504;2024-01-15T04:00:28;9.00;99.90
34766;DHT22;20984;43.508;1.504;2024-01-15T04:02:53;9.10;99.90
34766;DHT22;20984;43.508;1.504;2024-01-15T04:05:19;9.10;99.90
34766;DHT22;20984;43.508;1.504;2024-01-15T04:07:44;9.10;99.90
34766;DHT22;20984;43.508;1.504;2024-01-15T04:10:10;9.00;99.90
34766;DHT22;20984;43.508;1.504;2024-01-15T04:12:36;9.00;99.90
34766;DHT22;20984;43.508;1.504;2024-01-15T04:15:01;8.90;99.90
34766;DHT22;20984;43.508;1.504;2024-01-15T04:17:27;8.90;99.90
34766;DHT22;20984;43.508;1.504;2024-01-15T04:19:52;8.90;99.90
34766;DHT22;20984;43.508;1.504;2024-01-15T04:22:18;8.90;99.90
34766;DHT22;20984;43.508;1.504;2024-01-15T04:24:43;8.90;99.90
34766;DHT22;20984;43.508;1.504;2024-01-15T04:27:09;8.90;99.90
34766;DHT22;20984;43.508;1.504;2024-01-15T04:29:34;8.90;99.90
34766;DHT22;20984;43.508;1.504;2024-01-15T04:32:02;8.80;99.90
34766;DHT22;20984;43.508;1.504;2024-01-15T04:34:28;8.90;99.90
34766;DHT22;20984;43.508;1.504;2024-01-15T04:36:53;8.90;99.90
34766;DHT22;20984;43.508;1.504;2024-01-15T04:39:19;8.90;99.90
34766;DHT22;20984;43.508;1.504;2024-01-15T04:41:44;8.90;99.90
34766;DHT22;20984;43.508;1.504;2024-01-15T04:44:10;9.00;99.90
34766;DHT22;20984;43.508;1.504;2024-01-15T04:46:36;9.00;99.90
34766;DHT22;20984;43.508;1.504;2024-01-15T04:49:01;9.00;99.90
34766;DHT22;20984;43.508;1.504;2024-01-15T04:51:27;9.00;99.90
34766;DHT22;20984;43.508;1.504;2024-01-15T04:53:53;9.00;99.90
34766;DHT22;20984;43.508;1.504;2024-01-15T04:56:18;9.00;99.90
34766;DHT22;20984;43.508;1.504;2024-01-15T04:58:44;9.00;99.90
34766;DHT22;20984;43.508;1.504;2024-01-15T05:01:09;9.00;99.90
34766;DHT22;20984;43.508;1.504;2024-01-15T05:03:35;9.00;99.90
34766;DHT22;20984;43.508;1.504;2024-01-15T05:06:01;9.00;99.90
34766;DHT22;20984;43.508;1.504;2024-01-15T05:08:26;9.00;99.90
34766;DHT22;20984;43.508;1.504;2024-01-15T05:10:52;9.00;99.90
34766;DHT22;20984;43.508;1.504;2024-01-15T05:13:17;9.00;99.90
34766;DHT22;20984;43.508;1.504;2024-01-15T05:15:43;9.00;99.90
34766;DHT22;20984;43.508;1.504;2024-01-15T05:18:08;9.00;99.90
34766;DHT22;20984;43.508;1.504;2024-01-15T05:20:34;9.00;99.90
34766;DHT22;20984;43.508;1.504;2024-01-15T05:22:59;9.00;99.90
34766;DHT22;20984;43.508;1.504;2024-01-15T05:25:25;9.00;99.90
34766;DHT22;20984;43.508;1.504;2024-01-15T05:27:51;9.00;99.90
34766;DHT22;20984;43.508;1.504;2024-01-15T05:30:16;9.00;99.90
34766;DHT22;20984;43.508;1.504;2024-01-15T05:32:42;9.00;99.90
34766;DHT22;20984;43.508;1.504;2024-01-15T05:35:07;9.00;99.90
34766;DHT22;20984;43.508;1.504;2024-01-15T05:37:33;8.90;99.90
34766;DHT22;20984;43.508;1.504;2024-01-15T05:39:58;8.90;99.90
34766;DHT22;20984;43.508;1.504;2024-01-15T05:42:24;8.90;99.90
34766;DHT22;20984;43.508;1.504;2024-01-15T05:44:49;8.90;99.90
34766;DHT22;20984;43.508;1.504;2024-01-15T05:47:15;8.90;99.90
34766;DHT22;20984;43.508;1.504;2024-01-15T05:49:41;8.90;99.90
34766;DHT22;20984;43.508;1.504;2024-01-15T05:52:06;8.80;99.90
34766;DHT22;20984;43.508;1.504;2024-01-15T05:54:32;8.90;99.90
34766;DHT22;20984;43.508;1.504;2024-01-15T05:56:57;8.90;99.90
34766;DHT22;20984;43.508;1.504;2024-01-15T05:59:23;8.90;99.90
34766;DHT22;20984;43.508;1.504;2024-01-15T06:01:48;8.90;99.90
34766;DHT22;20984;43.508;1.504;2024-01-15T06:04:14;8.90;99.90
34766;DHT22;20984;43.508;1.504;2024-01-15T06:06:39;8.90;99.90
34766;DHT22;20984;43.508;1.504;2024-01-15T06:09:05;8.80;99.90
34766;DHT22;20984;43.508;1.504;2024-01-15T06:11:31;8.80;99.90
34766;DHT22;20984;43.508;1.504;2024-01-15T06:13:57;8.80;99.90
34766;DHT22;20984;43.508;1.504;2024-01-15T06:16:23;8.80;99.90
34766;DHT22;20984;43.508;1.504;2024-01-15T06:18:48;8.80;99.90
34766;DHT22;20984;43.508;1.504;2024-01-15T06:21:14;8.80;99.90
34766;DHT22;20984;43.508;1.504;2024-01-15T06:23:40;8.80;99.90
34766;DHT22;20984;43.508;1.504;2024-01-15T06:26:06;8.80;99.90
34766;DHT22;20984;43.508;1.504;2024-01-15T06:28:31;8.80;99.90
34766;DHT22;20984;43.508;1.504;2024-01-15T06:30:57;8.80;99.90
34766;DHT22;20984;43.508;1.504;2024-01-15T06:33:23;8.80;99.90
34766;DHT22;20984;43.508;1.504;2024-01-15T06:35:49;8.80;99.90
34766;DHT22;20984;43.508;1.504;2024-01-15T06:38:15;8.80;99.90
34766;DHT22;20984;43.508;1.504;2024-01-15T06:40:40;8.80;99.90
34766;DHT22;20984;43.508;1.504;2024-01-15T06:43:17;8.80;99.90
34766;DHT22;20984;43.508;1.504;2024-01-15T06:45:46;8.80;99.90
34766;DHT22;20984;43.508;1.504;2024-01-15T06:48:11;8.80;99.90
34766;DHT22;20984;43.508;1.504;2024-01-15T06:50:41;8.80;99.90
34766;DHT22;20984;43.508;1.504;2024-01-15T06:53:07;8.80;99.90
34766;DHT22;20984;43.508;1.504;2024-01-15T06:55:32;8.80;99.90
34766;DHT22;20984;43.508;1.504;2024-01-15T06:57:58;8.80;99.90
34766;DHT22;20984;43.508;1.504;2024-01-15T07:00:23;8.80;99.90
34766;DHT22;20984;43.508;1.504;2024-01-15T07:02:49;8.80;99.90
34766;DHT22;20984;43.508;1.504;2024-01-15T07:05:15;8.80;99.90
34766;DHT22;20984;43.508;1.504;2024-01-15T07:07:40;8.70;99.90
34766;DHT22;20984;43.508;1.504;2024-01-15T07:10:06;8.80;99.90
34766;DHT22;20984;43.508;1.504;2024-01-15T07:12:32;8.80;99.90
34766;DHT22;20984;43.508;1.504;2024-01-15T07:14:57;8.70;99.90
34766;DHT22;20984;43.508;1.504;2024-01-15T07:17:23;8.80;99.90
34766;DHT22;20984;43.508;1.504;2024-01-15T07:19:48;8.80;99.90
34766;DHT22;20984;43.508;1.504;2024-01-15T07:22:14;8.80;99.90
34766;DHT22;20984;43.508;1.504;2024-01-15T07:24:42;8.80;99.90
34766;DHT22;20984;43.508;1.504;2024-01-15T07:27:08;8.80;99.90
34766;DHT22;20984;43.508;1.504;2024-01-15T07:29:34;8.80;99.90
34766;DHT22;20984;43.508;1.504;2024-01-15T07:32:02;8.80;99.90
34766;DHT22;20984;43.508;1.504;2024-01-15T07:34:28;8.80;99.90
34766;DHT22;20984;43.508;1.504;2024-01-15T07:36:54;8.80;99.90
34766;DHT22;20984;43.508;1.504;2024-01-15T07:39:19;8.80;99.90
34766;DHT22;20984;43.508;1.504;2024-01-15T07:41:45;8.80;99.90
34766;DHT22;20984;43.508;1.504;2024-01-15T07:44:10;8.90;99.90
34766;DHT22;20984;43.508;1.504;2024-01-15T07:46:36;8.80;99.90
34766;DHT22;20984;43.508;1.504;2024-01-15T07:49:01;8.80;99.90
34766;DHT22;20984;43.508;1.504;2024-01-15T07:51:27;8.90;99.90
34766;DHT22;20984;43.508;1.504;2024-01-15T07:53:53;8.90;99.90
34766;DHT22;20984;43.508;1.504;2024-01-15T07:56:19;8.90;99.90
34766;DHT22;20984;43.508;1.504;2024-01-15T07:58:44;8.90;99.90
34766;DHT22;20984;43.508;1.504;2024-01-15T08:01:10;8.90;99.90
34766;DHT22;20984;43.508;1.504;2024-01-15T08:03:35;8.90;99.90
34766;DHT22;20984;43.508;1.504;2024-01-15T08:06:01;9.00;99.90
34766;DHT22;20984;43.508;1.504;2024-01-15T08:08:26;8.90;99.90
34766;DHT22;20984;43.508;1.504;2024-01-15T08:10:52;9.00;99.90
34766;DHT22;20984;43.508;1.504;2024-01-15T08:13:18;9.00;99.90
34766;DHT22;20984;43.508;1.504;2024-01-15T08:15:44;9.10;99.90
34766;DHT22;20984;43.508;1.504;2024-01-15T08:18:09;9.10;99.90
34766;DHT22;20984;43.508;1.504;2024-01-15T08:20:35;9.20;99.90
34766;DHT22;20984;43.508;1.504;2024-01-15T08:23:00;9.20;99.90
34766;DHT22;20984;43.508;1.504;2024-01-15T08:25:26;9.20;99.90
34766;DHT22;20984;43.508;1.504;2024-01-15T08:27:52;9.30;99.90
34766;DHT22;20984;43.508;1.504;2024-01-15T08:30:17;9.30;99.90
34766;DHT22;20984;43.508;1.504;2024-01-15T08:32:44;9.30;99.90
34766;DHT22;20984;43.508;1.504;2024-01-15T08:35:10;9.30;99.90
34766;DHT22;20984;43.508;1.504;2024-01-15T08:37:35;9.30;99.90
34766;DHT22;20984;43.508;1.504;2024-01-15T08:40:01;9.30;99.90
34766;DHT22;20984;43.508;1.504;2024-01-15T08:42:27;9.30;99.90
34766;DHT22;20984;43.508;1.504;2024-01-15T08:44:52;9.40;99.90
34766;DHT22;20984;43.508;1.504;2024-01-15T08:47:18;9.40;99.90
34766;DHT22;20984;43.508;1.504;2024-01-15T08:49:43;9.50;99.90
34766;DHT22;20984;43.508;1.504;2024-01-15T08:52:10;9.60;99.90
34766;DHT22;20984;43.508;1.504;2024-01-15T08:54:36;9.60;99.90
34766;DHT22;20984;43.508;1.504;2024-01-15T08:57:01;9.60;99.90
34766;DHT22;20984;43.508;1.504;2024-01-15T08:59:27;9.60;99.90
34766;DHT22;20984;43.508;1.504;2024-01-15T09:01:52;9.60;99.90
34766;DHT22;20984;43.508;1.504;2024-01-15T09:04:18;9.60;99.90
34766;DHT22;20984;43.508;1.504;2024-01-15T09:06:47;9.70;99.90
34766;DHT22;20984;43.508;1.504;2024-01-15T09:09:13;9.70;99.90
34766;DHT22;20984;43.508;1.504;2024-01-15T09:11:42;9.70;99.90
34766;DHT22;20984;43.508;1.504;2024-01-15T09:14:08;9.70;99.90
34766;DHT22;20984;43.508;1.504;2024-01-15T09:16:34;9.70;99.90
34766;DHT22;20984;43.508;1.504;2024-01-15T09:19:00;9.80;99.90
34766;DHT22;20984;43.508;1.504;2024-01-15T09:21:25;9.70;99.90
34766;DHT22;20984;43.508;1.504;2024-01-15T09:23:51;9.80;99.90
34766;DHT22;20984;43.508;1.504;2024-01-15T09:26:17;9.80;99.90
34766;DHT22;20984;43.508;1.504;2024-01-15T09:28:42;9.90;99.90
34766;DHT22;20984;43.508;1.504;2024-01-15T09:31:08;10.00;99.90
34766;DHT22;20984;43.508;1.504;2024-01-15T09:33:33;9.90;99.90
34766;DHT22;20984;43.508;1.504;2024-01-15T09:36:02;9.90;99.90
34766;DHT22;20984;43.508;1.504;2024-01-15T09:38:31;9.90;99.90
34766;DHT22;20984;43.508;1.504;2024-01-15T09:40:57;9.90;99.90
34766;DHT22;20984;43.508;1.504;2024-01-15T09:43:23;9.80;99.90
34766;DHT22;20984;43.508;1.504;2024-01-15T09:45:49;9.80;99.90
34766;DHT22;20984;43.508;1.504;2024-01-15T09:48:15;9.80;99.90
34766;DHT22;20984;43.508;1.504;2024-01-15T09:50:41;9.90;99.90
34766;DHT22;20984;43.508;1.504;2024-01-15T09:53:07;9.90;99.90
34766;DHT22;20984;43.508;1.504;2024-01-15T09:55:35;9.90;99.90
34766;DHT22;20984;43.508;1.504;2024-01-15T09:58:01;10.00;99.90
34766;DHT22;20984;43.508;1.504;2024-01-15T10:00:28;10.00;99.90
34766;DHT22;20984;43.508;1.504;2024-01-15T10:02:55;10.20;99.90
34766;DHT22;20984;43.508;1.504;2024-01-15T10:05:21;10.20;99.90
34766;DHT22;20984;43.508;1.504;2024-01-15T10:07:46;10.30;99.90
34766;DHT22;20984;43.508;1.504;2024-01-15T10:10:12;10.20;99.90
34766;DHT22;20984;43.508;1.504;2024-01-15T10:12:39;10.30;99.90
34766;DHT22;20984;43.508;1.504;2024-01-15T10:15:04;10.30;99.90
34766;DHT22;20984;43.508;1.504;2024-01-15T10:17:30;10.20;99.90
34766;DHT22;20984;43.508;1.504;2024-01-15T10:19:56;10.20;99.90
34766;DHT22;20984;43.508;1.504;2024-01-15T10:22:22;10.20;99.90
34766;DHT22;20984;43.508;1.504;2024-01-15T10:24:48;10.20;99.90
34766;DHT22;20984;43.508;1.504;2024-01-15T10:27:14;10.20;99.90
34766;DHT22;20984;43.508;1.504;2024-01-15T10:29:41;10.30;99.90
34766;DHT22;20984;43.508;1.504;2024-01-15T10:32:07;10.30;99.90
34766;DHT22;20984;43.508;1.504;2024-01-15T10:34:40;10.40;99.90
34766;DHT22;20984;43.508;1.504;2024-01-15T10:37:09;10.50;99.90
34766;DHT22;20984;43.508;1.504;2024-01-15T10:39:34;10.60;99.90
34766;DHT22;20984;43.508;1.504;2024-01-15T10:42:00;10.60;99.90
34766;DHT22;20984;43.508;1.504;2024-01-15T10:44:25;10.60;99.90
34766;DHT22;20984;43.508;1.504;2024-01-15T10:46:51;10.50;99.90
34766;DHT22;20984;43.508;1.504;2024-01-15T10:49:16;10.50;99.90
34766;DHT22;20984;43.508;1.504;2024-01-15T10:51:45;10.60;99.90
34766;DHT22;20984;43.508;1.504;2024-01-15T10:54:10;10.60;99.90
34766;DHT22;20984;43.508;1.504;2024-01-15T10:56:37;10.70;99.90
34766;DHT22;20984;43.508;1.504;2024-01-15T10:59:03;10.60;99.90
34766;DHT22;20984;43.508;1.504;2024-01-15T11:01:30;10.70;99.90
34766;DHT22;20984;43.508;1.504;2024-01-15T11:03:55;10.70;99.90
34766;DHT22;20984;43.508;1.504;2024-01-15T11:06:23;10.70;99.90
34766;DHT22;20984;43.508;1.504;2024-01-15T11:08:49;10.70;99.90
34766;DHT22;20984;43.508;1.504;2024-01-15T11:11:18;10.80;99.90
34766;DHT22;20984;43.508;1.504;2024-01-15T11:13:45;10.90;99.90
34766;DHT22;20984;43.508;1.504;2024-01-15T11:16:11;10.90;99.90
34766;DHT22;20984;43.508;1.504;2024-01-15T11:18:39;11.00;99.90
34766;DHT22;20984;43.508;1.504;2024-01-15T11:28:55;10.90;99.90
34766;DHT22;20984;43.508;1.504;2024-01-15T11:31:28;10.90;99.90
34766;DHT22;20984;43.508;1.504;2024-01-15T11:33:53;11.00;99.90
34766;DHT22;20984;43.508;1.504;2024-01-15T11:36:20;11.00;99.90
34766;DHT22;20984;43.508;1.504;2024-01-15T11:38:46;11.00;99.90
34766;DHT22;20984;43.508;1.504;2024-01-15T11:41:14;11.00;99.90
34766;DHT22;20984;43.508;1.504;2024-01-15T11:43:43;11.00;99.90
34766;DHT22;20984;43.508;1.504;2024-01-15T11:46:10;10.90;99.90
34766;DHT22;20984;43.508;1.504;2024-01-15T11:48:42;11.00;99.90
34766;DHT22;20984;43.508;1.504;2024-01-15T11:51:08;11.00;99.90
34766;DHT22;20984;43.508;1.504;2024-01-15T11:53:45;11.10;99.90
34766;DHT22;20984;43.508;1.504;2024-01-15T11:56:15;11.10;99.90
34766;DHT22;20984;43.508;1.504;2024-01-15T11:58:44;11.00;99.90
34766;DHT22;20984;43.508;1.504;2024-01-15T12:01:10;11.00;99.90
34766;DHT22;20984;43.508;1.504;2024-01-15T12:03:36;11.00;99.90
34766;DHT22;20984;43.508;1.504;2024-01-15T12:06:01;10.90;99.90
34766;DHT22;20984;43.508;1.504;2024-01-15T12:08:27;11.00;99.90
34766;DHT22;20984;43.508;1.504;2024-01-15T12:10:53;11.10;99.90
34766;DHT22;20984;43.508;1.504;2024-01-15T12:13:19;11.00;99.90
34766;DHT22;20984;43.508;1.504;2024-01-15T12:15:46;11.00;99.90
34766;DHT22;20984;43.508;1.504;2024-01-15T12:18:12;11.10;99.90
34766;DHT22;20984;43.508;1.504;2024-01-15T12:20:39;11.10;99.90
34766;DHT22;20984;43.508;1.504;2024-01-15T12:23:05;11.20;99.90
34766;DHT22;20984;43.508;1.504;2024-01-15T12:25:31;11.20;99.90
34766;DHT22;20984;43.508;1.504;2024-01-15T12:27:57;11.20;99.90
34766;DHT22;20984;43.508;1.504;2024-01-15T12:30:23;11.20;99.90
34766;DHT22;20984;43.508;1.504;2024-01-15T12:32:48;11.30;99.90
34766;DHT22;20984;43.508;1.504;2024-01-15T12:35:14;11.40;99.90
34766;DHT22;20984;43.508;1.504;2024-01-15T12:37:40;11.50;99.90
34766;DHT22;20984;43.508;1.504;2024-01-15T12:40:07;11.50;99.90
34766;DHT22;20984;43.508;1.504;2024-01-15T12:42:33;11.50;99.90
34766;DHT22;20984;43.508;1.504;2024-01-15T12:45:01;11.50;99.90
34766;DHT22;20984;43.508;1.504;2024-01-15T12:47:28;11.60;99.90
34766;DHT22;20984;43.508;1.504;2024-01-15T12:49:54;11.60;99.90
34766;DHT22;20984;43.508;1.504;2024-01-15T12:52:20;11.50;99.90
34766;DHT22;20984;43.508;1.504;2024-01-15T12:54:51;11.50;99.90
34766;DHT22;20984;43.508;1.504;2024-01-15T12:57:17;11.60;99.90
34766;DHT22;20984;43.508;1.504;2024-01-15T12:59:46;11.50;99.90
34766;DHT22;20984;43.508;1.504;2024-01-15T13:02:12;11.50;99.90
34766;DHT22;20984;43.508;1.504;2024-01-15T13:04:37;11.50;99.90
34766;DHT22;20984;43.508;1.504;2024-01-15T13:07:04;11.50;99.90
34766;DHT22;20984;43.508;1.504;2024-01-15T13:09:30;11.50;99.90
34766;DHT22;20984;43.508;1.504;2024-01-15T13:11:55;11.50;99.90
34766;DHT22;20984;43.508;1.504;2024-01-15T13:14:21;11.60;99.90
34766;DHT22;20984;43.508;1.504;2024-01-15T13:16:46;11.60;99.90
34766;DHT22;20984;43.508;1.504;2024-01-15T13:19:12;11.60;99.90
34766;DHT22;20984;43.508;1.504;2024-01-15T13:21:39;11.60;99.90
34766;DHT22;20984;43.508;1.504;2024-01-15T13:24:05;11.60;99.90
34766;DHT22;20984;43.508;1.504;2024-01-15T13:26:31;11.60;99.90
34766;DHT22;20984;43.508;1.504;2024-01-15T13:28:57;11.70;99.90
34766;DHT22;20984;43.508;1.504;2024-01-15T13:31:22;11.70;99.90
34766;DHT22;20984;43.508;1.504;2024-01-15T13:33:48;11.80;99.90
34766;DHT22;20984;43.508;1.504;2024-01-15T13:36:13;11.80;99.90
34766;DHT22;20984;43.508;1.504;2024-01-15T13:38:39;11.90;99.90
34766;DHT22;20984;43.508;1.504;2024-01-15T13:41:05;11.90;99.90
34766;DHT22;20984;43.508;1.504;2024-01-15T13:43:33;11.90;99.90
34766;DHT22;20984;43.508;1.504;2024-01-15T13:45:59;11.80;99.90
34766;DHT22;20984;43.508;1.504;2024-01-15T13:48:25;11.80;99.90
34766;DHT22;20984;43.508;1.504;2024-01-15T13:50:51;11.70;99.90
34766;DHT22;20984;43.508;1.504;2024-01-15T13:53:17;11.70;99.90
34766;DHT22;20984;43.508;1.504;2024-01-15T13:55:44;11.60;99.90
34766;DHT22;20984;43.508;1.504;2024-01-15T13:58:10;11.60;99.90
34766;DHT22;20984;43.508;1.504;2024-01-15T14:00:35;11.60;99.90
34766;DHT22;20984;43.508;1.504;2024-01-15T14:03:01;11.60;99.90
34766;DHT22;20984;43.508;1.504;2024-01-15T14:05:27;11.50;99.90
34766;DHT22;20984;43.508;1.504;2024-01-15T14:07:52;11.60;99.90
34766;DHT22;20984;43.508;1.504;2024-01-15T14:10:18;11.60;99.90
34766;DHT22;20984;43.508;1.504;2024-01-15T14:12:43;11.60;99.90
34766;DHT22;20984;43.508;1.504;2024-01-15T14:15:09;11.60;99.90
34766;DHT22;20984;43.508;1.504;2024-01-15T14:17:34;11.60;99.90
34766;DHT22;20984;43.508;1.504;2024-01-15T14:20:00;11.60;99.90
34766;DHT22;20984;43.508;1.504;2024-01-15T14:22:25;11.60;99.90
34766;DHT22;20984;43.508;1.504;2024-01-15T14:24:51;11.50;99.90
34766;DHT22;20984;43.508;1.504;2024-01-15T14:27:16;11.50;99.90
34766;DHT22;20984;43.508;1.504;2024-01-15T14:29:42;11.50;99.90
34766;DHT22;20984;43.508;1.504;2024-01-15T14:32:07;11.50;99.90
34766;DHT22;20984;43.508;1.504;2024-01-15T14:34:33;11.50;99.90
34766;DHT22;20984;43.508;1.504;2024-01-15T14:36:58;11.50;99.90
34766;DHT22;20984;43.508;1.504;2024-01-15T14:39:24;11.50;99.90
34766;DHT22;20984;43.508;1.504;2024-01-15T14:41:50;11.50;99.90
34766;DHT22;20984;43.508;1.504;2024-01-15T14:44:16;11.50;99.90
34766;DHT22;20984;43.508;1.504;2024-01-15T14:46:42;11.50;99.90
34766;DHT22;20984;43.508;1.504;2024-01-15T14:49:07;11.50;99.90
34766;DHT22;20984;43.508;1.504;2024-01-15T14:51:33;11.50;99.90
34766;DHT22;20984;43.508;1.504;2024-01-15T14:53:59;11.50;99.90
34766;DHT22;20984;43.508;1.504;2024-01-15T14:56:24;11.50;99.90
34766;DHT22;20984;43.508;1.504;2024-01-15T14:58:50;11.50;99.90
34766;DHT22;20984;43.508;1.504;2024-01-15T15:01:15;11.50;99.90
34766;DHT22;20984;43.508;1.504;2024-01-15T15:03:41;11.50;99.90
34766;DHT22;20984;43.508;1.504;2024-01-15T15:06:07;11.50;99.90
34766;DHT22;20984;43.508;1.504;2024-01-15T15:08:33;11.50;99.90
34766;DHT22;20984;43.508;1.504;2024-01-15T15:10:59;11.50;99.90
34766;DHT22;20984;43.508;1.504;2024-01-15T15:13:25;11.50;99.90
34766;DHT22;20984;43.508;1.504;2024-01-15T15:15:51;11.60;99.90
34766;DHT22;20984;43.508;1.504;2024-01-15T15:18:17;11.50;99.90
34766;DHT22;20984;43.508;1.504;2024-01-15T15:20:43;11.50;99.90
34766;DHT22;20984;43.508;1.504;2024-01-15T15:23:08;11.50;99.90
34766;DHT22;20984;43.508;1.504;2024-01-15T15:25:35;11.50;99.90
34766;DHT22;20984;43.508;1.504;2024-01-15T15:28:01;11.50;99.90
34766;DHT22;20984;43.508;1.504;2024-01-15T15:30:27;11.50;99.90
34766;DHT22;20984;43.508;1.504;2024-01-15T15:32:52;11.50;99.90
34766;DHT22;20984;43.508;1.504;2024-01-15T15:35:18;11.50;99.90
34766;DHT22;20984;43.508;1.504;2024-01-15T15:37:44;11.50;99.90
34766;DHT22;20984;43.508;1.504;2024-01-15T15:40:09;11.50;99.90